Time;durP1;ratioP1;P1;durP2;ratioP2;P2;SDS_P1;SDS_P2;PMS_P1;PMS_P2;Temp;Humidity;BMP_temperature;BMP_pressure;BME280_temperature;BME280_humidity;BME280_pressure;Samples;Min_cycle;Max_cycle;Signal;HPM_P1;HPM_P2
2020/02/22 00:01:53;;;;;;;4.7;3.1;;;;;;;5.67;55.79004;949.5075;;;;
2020/02/22 00:04:14;;;;;;;5.9;3.1;;;;;;;5.76;55.30664;949.5056;;;;
2020/02/22 00:06:39;;;;;;;5.8;3.2;;;;;;;5.86;54.5957;949.447;;;;
2020/02/22 00:09:05;;;;;;;5.2;3;;;;;;;5.85;56.18652;949.4253;;;;
2020/02/22 00:11:30;;;;;;;5.3;2.9;;;;;;;5.92;54.5918;949.3703;;;;
2020/02/22 00:13:59;;;;;;;5.3;3.1;;;;;;;5.85;54.83105;949.4105;;;;
2020/02/22 00:16:41;;;;;;;7.2;4.2;;;;;;;5.74;56.08203;949.45;;;;
2020/02/22 00:19:12;;;;;;;6.2;3.9;;;;;;;5.54;57.04883;949.3734;;;;
2020/02/22 00:21:34;;;;;;;7.9;4.3;;;;;;;5.47;57.68262;949.3276;;;;
2020/02/22 00:23:58;;;;;;;7.5;4.1;;;;;;;5.44;58.04004;949.2434;;;;
2020/02/22 00:26:21;;;;;;;7.6;3.9;;;;;;;5.33;58.2959;949.1756;;;;
2020/02/22 00:28:55;;;;;;;5.5;3.4;;;;;;;5.26;58.20703;949.1933;;;;
2020/02/22 00:31:23;;;;;;;4.2;3;;;;;;;5.31;57.77441;949.1998;;;;
2020/02/22 00:34:08;;;;;;;4.4;2.9;;;;;;;5.25;56.97559;949.1234;;;;
2020/02/22 00:36:21;;;;;;;5.5;3.1;;;;;;;5.26;57.11328;949.0656;;;;
2020/02/22 00:38:47;;;;;;;5.7;3;;;;;;;5.25;58.87012;949.057;;;;
2020/02/22 00:41:18;;;;;;;4.7;2.7;;;;;;;5.28;59.50684;948.9431;;;;
2020/02/22 00:43:49;;;;;;;6;3.2;;;;;;;5.26;59.85352;948.9747;;;;
2020/02/22 00:46:14;;;;;;;6;3.6;;;;;;;5.3;58.26953;949.0242;;;;
2020/02/22 00:51:18;;;;;;;5.2;3.3;;;;;;;5.45;57.10352;949.0516;;;;
2020/02/22 00:53:45;;;;;;;6;3.3;;;;;;;5.45;57.73633;949.1514;;;;
2020/02/22 00:56:40;;;;;;;7.4;3.6;;;;;;;5.47;57.88672;949.1011;;;;
2020/02/22 00:59:12;;;;;;;6.5;3.4;;;;;;;5.36;57.62305;949.0986;;;;
2020/02/22 01:01:36;;;;;;;7.4;3.8;;;;;;;5.39;57.96484;949.0848;;;;
2020/02/22 01:04:37;;;;;;;6.9;3.8;;;;;;;5.41;57.7998;949.2079;;;;
2020/02/22 01:07:11;;;;;;;4.7;3.1;;;;;;;5.38;57.0625;949.1202;;;;
2020/02/22 01:09:32;;;;;;;5.3;2.8;;;;;;;5.3;56.79199;948.9785;;;;
2020/02/22 01:11:57;;;;;;;3.8;2.3;;;;;;;5.23;56.2627;948.8382;;;;
2020/02/22 01:14:25;;;;;;;5.5;2.5;;;;;;;5.05;56.49902;948.7983;;;;
2020/02/22 01:16:53;;;;;;;3.9;2.2;;;;;;;5.01;56.74121;948.8611;;;;
2020/02/22 01:19:24;;;;;;;3.7;2;;;;;;;5.02;56.78906;948.8041;;;;
2020/02/22 01:22:04;;;;;;;5.6;2.1;;;;;;;5.13;56.73438;948.8387;;;;
2020/02/22 01:24:31;;;;;;;3.9;1.8;;;;;;;5.09;55.94043;948.8505;;;;
2020/02/22 01:29:41;;;;;;;4.2;1.9;;;;;;;5.21;56.26074;948.7639;;;;
2020/02/22 01:32:11;;;;;;;4.6;2;;;;;;;5.31;56.09375;948.7072;;;;
2020/02/22 01:34:58;;;;;;;3.7;2;;;;;;;5.36;55.55859;948.7029;;;;
2020/02/22 01:37:05;;;;;;;4.9;1.8;;;;;;;5.31;56.04883;948.6504;;;;
2020/02/22 01:40:00;;;;;;;4.5;2.6;;;;;;;5.18;57.09082;948.6462;;;;
2020/02/22 01:45:13;;;;;;;5.1;2.6;;;;;;;5.1;58.23145;948.6412;;;;
2020/02/22 01:47:44;;;;;;;6.7;3;;;;;;;4.95;59.12305;948.6747;;;;
2020/02/22 01:50:33;;;;;;;6.8;2.9;;;;;;;4.83;59.68066;948.6548;;;;
2020/02/22 01:54:24;;;;;;;6.7;2.7;;;;;;;4.74;59.93945;948.637;;;;
2020/02/22 01:56:10;;;;;;;6.3;2.7;;;;;;;4.63;59.79883;948.563;;;;
2020/02/22 01:58:28;;;;;;;6.1;2.9;;;;;;;4.51;59.74902;948.5939;;;;
2020/02/22 02:00:56;;;;;;;5.6;2.8;;;;;;;4.41;60.35547;948.687;;;;
2020/02/22 02:03:24;;;;;;;5.5;3.2;;;;;;;4.43;61.56152;948.6903;;;;
2020/02/22 02:05:50;;;;;;;8.5;3.7;;;;;;;4.44;62.53223;948.7151;;;;
2020/02/22 02:08:43;;;;;;;8.5;3.8;;;;;;;4.43;62.25879;948.7011;;;;
2020/02/22 02:11:37;;;;;;;5.5;3.3;;;;;;;4.44;61.42871;948.7712;;;;
2020/02/22 02:14:01;;;;;;;6.5;3.2;;;;;;;4.63;61.58984;948.8785;;;;
2020/02/22 02:16:40;;;;;;;8;3.9;;;;;;;4.73;61.61621;948.8433;;;;
2020/02/22 02:19:06;;;;;;;6.3;3.7;;;;;;;4.83;60.96484;948.788;;;;
2020/02/22 02:21:39;;;;;;;8.3;4.2;;;;;;;4.81;60.77051;948.8495;;;;
2020/02/22 02:24:30;;;;;;;7;3.7;;;;;;;4.78;60.99121;948.8358;;;;
2020/02/22 02:27:02;;;;;;;7.4;3.8;;;;;;;4.7;61.01465;948.8438;;;;
2020/02/22 02:29:29;;;;;;;6.7;3.6;;;;;;;4.69;61.83691;948.7814;;;;
2020/02/22 02:31:56;;;;;;;9;3.9;;;;;;;4.77;61.4082;948.8125;;;;
2020/02/22 02:35:34;;;;;;;6.8;3.4;;;;;;;4.67;61.02148;948.7101;;;;
2020/02/22 02:37:58;;;;;;;6.2;3.2;;;;;;;4.54;61.44336;948.7383;;;;
2020/02/22 02:40:41;;;;;;;6.4;3.5;;;;;;;4.43;61.9209;948.7203;;;;
2020/02/22 02:48:37;;;;;;;8.4;3.4;;;;;;;4.35;62.54102;948.5701;;;;
2020/02/22 02:51:01;;;;;;;6.3;3.7;;;;;;;4.3;62.9043;948.5881;;;;
2020/02/22 02:55:14;;;;;;;7.1;3.8;;;;;;;4.26;62.76367;948.5792;;;;
2020/02/22 02:58:00;;;;;;;8.7;3.9;;;;;;;4.09;63.08594;948.5363;;;;
2020/02/22 03:00:33;;;;;;;10.5;3.3;;;;;;;3.92;63.25293;948.6041;;;;
2020/02/22 03:03:07;;;;;;;5.4;2.8;;;;;;;3.78;63.35547;948.476;;;;
2020/02/22 03:05:30;;;;;;;6.9;2.6;;;;;;;3.62;63.16309;948.4055;;;;
2020/02/22 03:08:01;;;;;;;3.7;1.9;;;;;;;3.54;61.61328;948.3367;;;;
2020/02/22 03:10:26;;;;;;;4.3;1.9;;;;;;;3.6;60.8457;948.3285;;;;
2020/02/22 03:12:59;;;;;;;2.7;1.7;;;;;;;3.61;60.39844;948.3611;;;;
2020/02/22 03:15:36;;;;;;;3.9;2;;;;;;;3.76;61.45313;948.4244;;;;
2020/02/22 03:18:02;;;;;;;5.2;2.4;;;;;;;3.81;62.31445;948.4233;;;;
2020/02/22 03:20:27;;;;;;;5.6;2.1;;;;;;;3.88;61.40332;948.4102;;;;
2020/02/22 03:23:04;;;;;;;5.6;2.8;;;;;;;3.92;61.16113;948.4091;;;;
2020/02/22 03:25:41;;;;;;;4.1;2.2;;;;;;;3.91;61.36328;948.4397;;;;
2020/02/22 03:28:12;;;;;;;6.9;2.8;;;;;;;3.68;62.8916;948.4713;;;;
2020/02/22 03:30:49;;;;;;;6.1;2.8;;;;;;;3.49;63.80664;948.4417;;;;
2020/02/22 03:33:22;;;;;;;6.2;3.1;;;;;;;3.49;64.4248;948.4345;;;;
2020/02/22 03:35:47;;;;;;;7.2;2.9;;;;;;;3.45;64.51953;948.365;;;;
2020/02/22 03:38:12;;;;;;;4.6;2.4;;;;;;;3.34;64.49219;948.2967;;;;
2020/02/22 03:40:51;;;;;;;5.8;2.5;;;;;;;3.32;65.35254;948.3876;;;;
2020/02/22 03:43:31;;;;;;;5.5;2.3;;;;;;;3.33;65.30957;948.3293;;;;
2020/02/22 03:45:42;;;;;;;4.3;2.4;;;;;;;3.27;65.22266;948.3113;;;;
2020/02/22 03:48:07;;;;;;;5.5;2.7;;;;;;;3.15;65.46094;948.2885;;;;
2020/02/22 03:50:32;;;;;;;7.7;2.9;;;;;;;3.13;65.81836;948.2556;;;;
2020/02/22 03:53:15;;;;;;;5.4;2.7;;;;;;;3.13;65.83984;948.301;;;;
2020/02/22 03:55:46;;;;;;;7.9;2.7;;;;;;;3.14;66.01074;948.4097;;;;
2020/02/22 03:58:07;;;;;;;5.7;2.6;;;;;;;3.14;66.12305;948.4645;;;;
2020/02/22 04:02:45;;;;;;;5.5;2.4;;;;;;;3.05;66.1748;948.4637;;;;
2020/02/22 04:05:17;;;;;;;6.8;2.3;;;;;;;2.9;66.53418;948.5331;;;;
2020/02/22 04:07:51;;;;;;;3.6;2.1;;;;;;;2.68;67.49805;948.4807;;;;
2020/02/22 04:10:14;;;;;;;4.2;2.1;;;;;;;2.59;67.88574;948.5499;;;;
2020/02/22 04:12:44;;;;;;;4.6;2;;;;;;;2.45;68.7041;948.5773;;;;
2020/02/22 04:15:10;;;;;;;4.8;2.1;;;;;;;2.49;68.67578;948.6133;;;;
2020/02/22 04:17:43;;;;;;;3.4;1.9;;;;;;;2.41;68.66406;948.625;;;;
2020/02/22 04:20:08;;;;;;;2.6;1.9;;;;;;;2.45;68.65918;948.689;;;;
2020/02/22 04:23:00;;;;;;;6.2;2;;;;;;;2.62;67.96973;948.7509;;;;
2020/02/22 04:25:29;;;;;;;3.9;2;;;;;;;2.66;67.70605;948.7761;;;;
2020/02/22 04:28:03;;;;;;;4.4;2;;;;;;;2.74;67.86523;948.7881;;;;
2020/02/22 04:30:28;;;;;;;4.2;2.1;;;;;;;2.67;68.06738;948.827;;;;
2020/02/22 04:33:07;;;;;;;5.4;2.3;;;;;;;2.58;67.67188;948.8247;;;;
2020/02/22 04:35:34;;;;;;;9.6;5;;;;;;;2.69;67.3291;948.7523;;;;
2020/02/22 04:38:06;;;;;;;8.9;3.9;;;;;;;2.84;67.00586;948.7224;;;;
2020/02/22 04:40:35;;;;;;;8.2;2.9;;;;;;;2.84;67.05078;948.6817;;;;
2020/02/22 04:43:08;;;;;;;5.2;2.4;;;;;;;2.84;67.14063;948.6696;;;;
2020/02/22 04:45:35;;;;;;;4.4;2.4;;;;;;;2.66;67.77344;948.565;;;;
2020/02/22 04:48:02;;;;;;;5.8;2.4;;;;;;;2.35;69.01074;948.5233;;;;
2020/02/22 04:50:29;;;;;;;7.1;3.2;;;;;;;2.22;69.55078;948.5758;;;;
2020/02/22 04:52:53;;;;;;;4.1;2.6;;;;;;;2.21;69.4707;948.4755;;;;
2020/02/22 04:55:20;;;;;;;7.2;2.9;;;;;;;2.17;69.87891;948.4509;;;;
2020/02/22 04:58:15;;;;;;;4.3;2.7;;;;;;;2.24;69.62207;948.4241;;;;
2020/02/22 05:03:04;;;;;;;4.4;2.7;;;;;;;2.16;69.48438;948.3976;;;;
2020/02/22 05:05:36;;;;;;;8;4.2;;;;;;;2.06;69.36914;948.3961;;;;
2020/02/22 05:08:01;;;;;;;3.4;1.8;;;;;;;1.93;68.87793;948.4042;;;;
2020/02/22 05:10:31;;;;;;;5.6;1.9;;;;;;;1.93;68.24805;948.3967;;;;
2020/02/22 05:13:16;;;;;;;2.7;1.6;;;;;;;2.14;67.21973;948.3306;;;;
2020/02/22 05:15:40;;;;;;;7.3;2.2;;;;;;;2.08;67.43359;948.3837;;;;
2020/02/22 05:18:11;;;;;;;5.4;2;;;;;;;2.04;66.95898;948.3619;;;;
2020/02/22 05:20:44;;;;;;;4.8;2;;;;;;;2.22;66.72852;948.3378;;;;
2020/02/22 05:23:15;;;;;;;4.1;2.5;;;;;;;2.4;66.80176;948.4422;;;;
2020/02/22 05:25:40;;;;;;;15;4;;;;;;;2.56;66.40137;948.4138;;;;
2020/02/22 05:28:10;;;;;;;7.7;4.1;;;;;;;2.64;66.40332;948.506;;;;
2020/02/22 05:30:41;;;;;;;12;5.4;;;;;;;2.67;66.19531;948.558;;;;
2020/02/22 05:33:07;;;;;;;5.8;3.7;;;;;;;2.46;66.90137;948.5591;;;;
2020/02/22 05:38:12;;;;;;;4.6;2.9;;;;;;;2.2;67.81152;948.5696;;;;
2020/02/22 05:43:18;;;;;;;4.7;2.2;;;;;;;2.05;68.20313;948.6195;;;;
2020/02/22 05:45:49;;;;;;;5.6;2.1;;;;;;;2.01;68.35059;948.5988;;;;
2020/02/22 05:48:17;;;;;;;3.3;1.8;;;;;;;1.96;68.12012;948.5848;;;;
2020/02/22 05:50:50;;;;;;;3.8;1.9;;;;;;;2.01;68.25195;948.6235;;;;
2020/02/22 05:53:09;;;;;;;2.9;1.7;;;;;;;1.97;68.2793;948.6696;;;;
2020/02/22 05:56:16;;;;;;;4.4;2.6;;;;;;;1.8;68.95703;948.6692;;;;
2020/02/22 05:58:44;;;;;;;7.1;3.8;;;;;;;1.73;69.79492;948.66;;;;
2020/02/22 06:01:20;;;;;;;9.9;7;;;;;;;1.79;69.73633;948.6577;;;;
2020/02/22 06:03:33;;;;;;;9.1;4.2;;;;;;;1.92;69.52441;948.6886;;;;
2020/02/22 06:06:23;;;;;;;8.6;3.6;;;;;;;1.86;69.73926;948.7164;;;;
2020/02/22 06:08:35;;;;;;;9.5;2.8;;;;;;;1.97;68.88379;948.7509;;;;
2020/02/22 06:11:02;;;;;;;5.3;2.5;;;;;;;2.03;68.25488;948.7978;;;;
2020/02/22 06:13:34;;;;;;;6.4;3;;;;;;;2.03;67.29199;948.7683;;;;
2020/02/22 06:16:17;;;;;;;11.4;2.9;;;;;;;2.16;66.60645;948.7473;;;;
2020/02/22 06:18:47;;;;;;;9.6;2.4;;;;;;;2.33;66.45605;948.7993;;;;
2020/02/22 06:21:25;;;;;;;8.1;2.6;;;;;;;2.27;67.06348;948.7983;;;;
2020/02/22 06:23:57;;;;;;;5.6;3.1;;;;;;;2.22;68.11719;948.7983;;;;
2020/02/22 06:26:25;;;;;;;9.1;2.9;;;;;;;2.17;68.27832;948.7692;;;;
2020/02/22 06:28:52;;;;;;;8.1;2.6;;;;;;;2.16;68.81348;948.7891;;;;
2020/02/22 06:31:16;;;;;;;7.7;2.7;;;;;;;2.07;68.76563;948.6135;;;;
2020/02/22 06:33:49;;;;;;;4.8;2.5;;;;;;;1.87;68.9668;948.5737;;;;
2020/02/22 06:36:33;;;;;;;12.8;4.7;;;;;;;1.71;69.17676;948.5103;;;;
2020/02/22 06:39:14;;;;;;;11.6;6;;;;;;;1.79;69.46973;948.4224;;;;
2020/02/22 06:41:38;;;;;;;13.2;5.4;;;;;;;1.88;69.32813;948.3108;;;;
2020/02/22 06:44:20;;;;;;;7.5;3.7;;;;;;;1.96;68.77051;948.2495;;;;
2020/02/22 06:46:38;;;;;;;5.9;3.2;;;;;;;1.92;67.62207;948.1853;;;;
2020/02/22 06:49:09;;;;;;;7.1;3.3;;;;;;;2.17;65.89258;948.2083;;;;
2020/02/22 06:51:40;;;;;;;6.1;3.2;;;;;;;2.43;65.98926;948.2527;;;;
2020/02/22 06:54:11;;;;;;;6.8;2.9;;;;;;;2.69;64.26855;948.2695;;;;
2020/02/22 06:56:38;;;;;;;7.8;3.5;;;;;;;2.9;63.15625;948.2176;;;;
2020/02/22 06:59:19;;;;;;;8.6;4.4;;;;;;;3.16;62.24121;948.2214;;;;
2020/02/22 07:01:39;;;;;;;7.1;4.2;;;;;;;3.3;62.54297;948.2137;;;;
2020/02/22 07:04:10;;;;;;;5.8;4.1;;;;;;;3.5;62.19043;948.1891;;;;
2020/02/22 07:09:20;;;;;;;9.8;4.7;;;;;;;4.15;59.57422;948.2935;;;;
2020/02/22 07:11:39;;;;;;;6.7;4.4;;;;;;;4.07;58.94629;948.3148;;;;
2020/02/22 07:14:11;;;;;;;7.9;5.1;;;;;;;4.16;58.78809;948.3394;;;;
2020/02/22 07:16:48;;;;;;;10.7;5;;;;;;;4.21;58.71582;948.3059;;;;
2020/02/22 07:19:19;;;;;;;10.4;4.5;;;;;;;4.62;56.92578;948.3675;;;;
2020/02/22 07:21:41;;;;;;;6.5;3.9;;;;;;;5.18;54.79102;948.3596;;;;
2020/02/22 07:24:06;;;;;;;8.8;4.7;;;;;;;5.58;52.95703;948.3861;;;;
2020/02/22 07:26:36;;;;;;;10.1;5;;;;;;;5.95;52.57324;948.3265;;;;
2020/02/22 07:29:06;;;;;;;19.7;9.1;;;;;;;6.1;51.34961;948.2668;;;;
2020/02/22 07:32:14;;;;;;;17.4;9.1;;;;;;;6.57;51.08887;948.222;;;;
2020/02/22 07:34:26;;;;;;;13.7;7.9;;;;;;;7.47;48.35059;948.27;;;;
2020/02/22 07:36:58;;;;;;;9.9;5.8;;;;;;;8.41;45.83203;948.1685;;;;
2020/02/22 07:39:22;;;;;;;8.5;4.5;;;;;;;9.05;43.95508;948.0779;;;;
2020/02/22 07:41:55;;;;;;;6.1;3.4;;;;;;;9.65;41.1543;948.1275;;;;
2020/02/22 07:44:18;;;;;;;7;3.4;;;;;;;10.12;40.40234;948.1255;;;;
2020/02/22 07:46:50;;;;;;;8.8;3.2;;;;;;;10.76;40.07324;948.0999;;;;
2020/02/22 07:49:35;;;;;;;7.5;3.1;;;;;;;11.27;38.24512;948.1055;;;;
2020/02/22 07:52:04;;;;;;;10.3;2.8;;;;;;;11.7;36.65723;948.1664;;;;
2020/02/22 07:54:31;;;;;;;9.9;4.5;;;;;;;12.47;35.10547;948.1049;;;;
2020/02/22 07:57:02;;;;;;;10.7;3.7;;;;;;;12.64;35.01563;948.116;;;;
2020/02/22 07:59:35;;;;;;;12;4.6;;;;;;;13.02;32.7959;948.1277;;;;
2020/02/22 08:02:05;;;;;;;17.6;7.6;;;;;;;14.12;31.80859;948.1358;;;;
2020/02/22 08:04:31;;;;;;;5.2;2.5;;;;;;;13.4;28.62988;948.1428;;;;
2020/02/22 08:06:56;;;;;;;6.6;1.7;;;;;;;14.22;28.11914;948.1418;;;;
2020/02/22 08:09:28;;;;;;;7.2;1.5;;;;;;;14.69;27.18164;948.1174;;;;
2020/02/22 08:12:00;;;;;;;6;1.3;;;;;;;15.26;26.29297;948.0017;;;;
2020/02/22 08:14:29;;;;;;;8.1;1.7;;;;;;;15.63;26.38477;948.1005;;;;
2020/02/22 08:16:56;;;;;;;3.5;1.6;;;;;;;15.17;26.32227;948.0288;;;;
2020/02/22 08:19:34;;;;;;;15.2;2;;;;;;;16.26;25.48633;947.9435;;;;
2020/02/22 08:21:59;;;;;;;4.5;1.5;;;;;;;16.18;25.46973;947.9767;;;;
2020/02/22 08:24:23;;;;;;;3.6;1.2;;;;;;;16.61;24.3125;947.9688;;;;
2020/02/22 08:27:21;;;;;;;6.4;1.1;;;;;;;16.37;25.21387;947.9534;;;;
2020/02/22 08:29:51;;;;;;;3.4;1.4;;;;;;;17.96;23.62207;947.9397;;;;
2020/02/22 08:32:13;;;;;;;4.9;1.2;;;;;;;18.09;23.05957;947.9113;;;;
2020/02/22 08:34:44;;;;;;;3.5;1.1;;;;;;;18.36;22.71387;947.8748;;;;
2020/02/22 08:37:08;;;;;;;6.7;2.7;;;;;;;18.03;22.5332;947.7778;;;;
2020/02/22 08:39:41;;;;;;;8.5;2.9;;;;;;;19.26;22.2002;947.7583;;;;
2020/02/22 08:42:53;;;;;;;5.7;1.8;;;;;;;20.11;21.82324;947.7007;;;;
2020/02/22 08:45:17;;;;;;;5.2;1.4;;;;;;;21.2;20.46191;947.6972;;;;
2020/02/22 08:47:50;;;;;;;4.8;1.5;;;;;;;21.11;20.23535;947.6703;;;;
2020/02/22 08:50:21;;;;;;;4.5;1.4;;;;;;;20.86;20.43359;947.6733;;;;
2020/02/22 08:52:50;;;;;;;5.1;1.2;;;;;;;21.08;20.90039;947.5461;;;;
2020/02/22 08:55:17;;;;;;;6;1;;;;;;;20.91;20.54199;947.5527;;;;
2020/02/22 08:58:16;;;;;;;4;1.1;;;;;;;21.39;19.82617;947.54;;;;
2020/02/22 09:01:30;;;;;;;3.4;1.1;;;;;;;21.47;19.66699;947.5072;;;;
2020/02/22 09:03:15;;;;;;;4.3;1.1;;;;;;;21.94;18.91406;947.4892;;;;
2020/02/22 09:05:41;;;;;;;1.7;0.9;;;;;;;20.87;18.5293;947.5435;;;;
2020/02/22 09:08:07;;;;;;;2.3;0.7;;;;;;;20.07;20.26855;947.537;;;;
2020/02/22 09:10:39;;;;;;;6.4;1;;;;;;;19.66;20.14551;947.5613;;;;
2020/02/22 09:13:16;;;;;;;6.3;1.3;;;;;;;19.41;20.55371;947.4878;;;;
2020/02/22 09:15:41;;;;;;;3.1;1.2;;;;;;;18.17;21.85547;947.4853;;;;
2020/02/22 09:18:10;;;;;;;2.5;1.1;;;;;;;17.31;23.07715;947.4512;;;;
2020/02/22 09:20:40;;;;;;;3.8;1;;;;;;;17.13;22.36035;947.386;;;;
2020/02/22 09:23:10;;;;;;;4.3;1;;;;;;;16.85;23.09863;947.3425;;;;
2020/02/22 09:26:12;;;;;;;2.2;0.9;;;;;;;17.09;22.97266;947.3337;;;;
2020/02/22 09:28:35;;;;;;;2.4;1;;;;;;;17.48;23.44531;947.3159;;;;
2020/02/22 09:31:07;;;;;;;1.3;0.7;;;;;;;17.94;21.78613;947.3394;;;;
2020/02/22 09:33:41;;;;;;;2.7;1.1;;;;;;;17.83;22.30273;947.3527;;;;
2020/02/22 09:36:10;;;;;;;2.3;0.9;;;;;;;17.8;21.7793;947.2946;;;;
2020/02/22 09:38:34;;;;;;;2.8;1;;;;;;;17.34;22.84668;947.2894;;;;
2020/02/22 09:40:58;;;;;;;1.8;0.8;;;;;;;17.28;22.78516;947.2364;;;;
2020/02/22 09:43:31;;;;;;;3.4;0.9;;;;;;;18.25;21.88281;947.1724;;;;
2020/02/22 09:46:04;;;;;;;3.8;1.3;;;;;;;18.11;22.01465;947.2664;;;;
2020/02/22 09:48:38;;;;;;;1.5;0.9;;;;;;;17.61;23;947.1834;;;;
2020/02/22 09:51:06;;;;;;;2.1;0.9;;;;;;;17.54;23.64551;947.1708;;;;
2020/02/22 09:53:33;;;;;;;1.7;0.9;;;;;;;17.53;24.2832;947.253;;;;
2020/02/22 09:56:04;;;;;;;1.2;0.8;;;;;;;17.89;23.91992;947.2969;;;;
2020/02/22 09:58:36;;;;;;;3;1;;;;;;;18.04;24.2998;947.3279;;;;
2020/02/22 10:01:02;;;;;;;1.9;0.8;;;;;;;18.44;23.3916;947.3973;;;;
2020/02/22 10:03:42;;;;;;;2.9;0.8;;;;;;;19.26;23.26074;947.2906;;;;
2020/02/22 10:06:22;;;;;;;1.8;0.8;;;;;;;19.84;23.37305;947.2977;;;;
2020/02/22 10:08:59;;;;;;;3.2;0.8;;;;;;;20.01;21.1416;947.3409;;;;
2020/02/22 10:11:44;;;;;;;1.2;0.6;;;;;;;19.76;22.01563;947.329;;;;
2020/02/22 10:16:56;;;;;;;1.4;0.8;;;;;;;19.56;21.90137;947.3043;;;;
2020/02/22 10:19:22;;;;;;;3.9;0.9;;;;;;;20.1;21.3916;947.3038;;;;
2020/02/22 10:21:52;;;;;;;2.4;0.8;;;;;;;19.91;19.63184;947.3608;;;;
2020/02/22 10:24:22;;;;;;;2.1;0.8;;;;;;;19.53;19.44043;947.3851;;;;
2020/02/22 10:26:50;;;;;;;3.9;1.5;;;;;;;19.73;21.08105;947.3222;;;;
2020/02/22 10:29:27;;;;;;;1.8;0.8;;;;;;;19.67;20.43848;947.3826;;;;
2020/02/22 10:32:21;;;;;;;1.4;0.8;;;;;;;20.08;19.70996;947.4075;;;;
2020/02/22 10:34:47;;;;;;;3.7;0.7;;;;;;;20.4;20.45996;947.4108;;;;
2020/02/22 10:37:12;;;;;;;3.9;0.9;;;;;;;20.61;22.12891;947.4416;;;;
2020/02/22 10:39:43;;;;;;;1.8;0.8;;;;;;;20.28;23.89844;947.2919;;;;
2020/02/22 10:42:12;;;;;;;1.4;0.9;;;;;;;20.19;23.69434;947.3923;;;;
2020/02/22 10:44:40;;;;;;;1.1;0.8;;;;;;;20.38;23.50586;947.3538;;;;
2020/02/22 10:47:17;;;;;;;2.3;0.9;;;;;;;20.74;22.59082;947.283;;;;
2020/02/22 10:50:14;;;;;;;1.8;0.9;;;;;;;20.7;23.60547;947.2188;;;;
2020/02/22 10:52:25;;;;;;;2.2;0.8;;;;;;;20.41;23.74121;947.2096;;;;
2020/02/22 10:55:03;;;;;;;2.6;0.9;;;;;;;20.61;24.3252;947.338;;;;
2020/02/22 10:57:33;;;;;;;2.6;0.8;;;;;;;20.78;24.32227;947.2905;;;;
2020/02/22 10:59:59;;;;;;;2;0.9;;;;;;;20.68;23.37109;947.2247;;;;
2020/02/22 11:02:31;;;;;;;2.1;0.9;;;;;;;20.71;23.54785;947.3086;;;;
2020/02/22 11:05:04;;;;;;;1.5;1;;;;;;;20.55;23.21191;947.3422;;;;
2020/02/22 11:07:33;;;;;;;1.2;0.8;;;;;;;20.96;22.84766;947.2198;;;;
2020/02/22 11:10:12;;;;;;;1.3;0.8;;;;;;;21.21;23.07129;947.2313;;;;
2020/02/22 11:12:39;;;;;;;1.2;0.8;;;;;;;22;21.56445;947.2561;;;;
2020/02/22 11:15:03;;;;;;;2.7;1;;;;;;;22.46;20.41406;947.1127;;;;
2020/02/22 11:17:40;;;;;;;1.4;1;;;;;;;23.03;20.61621;947.0405;;;;
2020/02/22 11:20:25;;;;;;;2.6;0.9;;;;;;;23.84;19.85352;947.0622;;;;
2020/02/22 11:22:49;;;;;;;2.3;0.9;;;;;;;24.19;19.32715;946.985;;;;
2020/02/22 11:25:17;;;;;;;1.3;0.7;;;;;;;23.65;19.30469;946.9742;;;;
2020/02/22 11:28:16;;;;;;;1.6;0.8;;;;;;;24.27;19.57813;946.991;;;;
2020/02/22 11:30:32;;;;;;;1.1;0.6;;;;;;;24.86;17.89355;946.9192;;;;
2020/02/22 11:33:00;;;;;;;1.8;0.7;;;;;;;25.41;17.27832;946.9484;;;;
2020/02/22 11:35:28;;;;;;;2.4;0.6;;;;;;;25.07;17.37109;946.8724;;;;
2020/02/22 11:38:01;;;;;;;1.3;0.7;;;;;;;25.24;17.23633;946.9166;;;;
2020/02/22 11:40:30;;;;;;;0.9;0.7;;;;;;;25.32;17.85352;946.8787;;;;
2020/02/22 11:42:55;;;;;;;1.3;0.7;;;;;;;24.56;17.89355;946.9192;;;;
2020/02/22 11:45:32;;;;;;;1.1;0.6;;;;;;;24.52;18.35156;946.9327;;;;
2020/02/22 11:47:59;;;;;;;1.1;0.6;;;;;;;24.61;18.32031;946.8517;;;;
2020/02/22 11:50:24;;;;;;;1.1;0.6;;;;;;;24.86;17.61133;946.9469;;;;
2020/02/22 11:53:05;;;;;;;0.7;0.6;;;;;;;25.41;17.37207;946.9442;;;;
2020/02/22 11:55:29;;;;;;;1.4;0.8;;;;;;;24.5;17.29004;946.9871;;;;
2020/02/22 11:57:59;;;;;;;1.7;0.7;;;;;;;23.97;18.17578;947.003;;;;
2020/02/22 12:00:29;;;;;;;0.8;0.6;;;;;;;24.28;18.38867;946.9817;;;;
2020/02/22 12:03:20;;;;;;;1;0.7;;;;;;;25.2;16.79785;946.9838;;;;
2020/02/22 12:06:02;;;;;;;1.6;0.8;;;;;;;25.28;17.42676;947.0401;;;;
2020/02/22 12:08:41;;;;;;;1.6;0.9;;;;;;;25.12;18.30566;947.0833;;;;
2020/02/22 12:11:05;;;;;;;1.5;0.9;;;;;;;24.11;20.00684;947.1489;;;;
2020/02/22 12:13:41;;;;;;;2.9;1;;;;;;;23.8;20.6875;947.1939;;;;
2020/02/22 12:16:03;;;;;;;1.3;0.7;;;;;;;24.02;19.06152;947.0578;;;;
2020/02/22 12:19:15;;;;;;;1.6;0.7;;;;;;;23.71;20.21289;947.0938;;;;
2020/02/22 12:21:47;;;;;;;1;0.7;;;;;;;23.24;20.69629;947.0875;;;;
2020/02/22 12:24:26;;;;;;;1.9;0.9;;;;;;;24.75;19.49316;947.0814;;;;
2020/02/22 12:27:01;;;;;;;1.5;0.9;;;;;;;26.68;17.6709;946.9263;;;;
2020/02/22 12:29:28;;;;;;;1.2;0.8;;;;;;;28.7;15.51367;946.904;;;;
2020/02/22 12:32:03;;;;;;;2.5;0.9;;;;;;;30.22;15.18359;946.913;;;;
2020/02/22 12:34:33;;;;;;;2.2;1;;;;;;;30.49;15.10938;946.9737;;;;
2020/02/22 12:37:03;;;;;;;1.8;1;;;;;;;28.83;15.58887;947.0538;;;;
2020/02/22 12:39:37;;;;;;;1.5;1;;;;;;;28.71;15.82324;946.9503;;;;
2020/02/22 12:42:14;;;;;;;1.3;1;;;;;;;28.78;15.95703;946.9163;;;;
2020/02/22 12:44:44;;;;;;;1.5;1;;;;;;;28.31;15.55957;946.8887;;;;
2020/02/22 12:47:14;;;;;;;1.5;1.1;;;;;;;28.3;16.97363;946.9144;;;;
2020/02/22 12:52:15;;;;;;;2.1;1.4;;;;;;;29.28;15.04492;946.7076;;;;
2020/02/22 12:55:19;;;;;;;3;1.4;;;;;;;28.03;15.69238;946.7311;;;;
2020/02/22 12:58:21;;;;;;;2.4;1.5;;;;;;;29.03;14.98926;946.7155;;;;
2020/02/22 13:00:49;;;;;;;2.2;1.3;;;;;;;28.44;15.48047;946.7667;;;;
2020/02/22 13:03:18;;;;;;;2.8;1.4;;;;;;;28.61;15.67676;946.7802;;;;
2020/02/22 13:05:48;;;;;;;3.4;1.9;;;;;;;28.19;15.76953;946.8;;;;
2020/02/22 13:08:38;;;;;;;2.4;1.4;;;;;;;29.36;14.67871;946.6786;;;;
2020/02/22 13:10:57;;;;;;;3.1;1.4;;;;;;;28.93;16.27148;946.6497;;;;
2020/02/22 13:13:28;;;;;;;1.8;1.2;;;;;;;30.38;14.52051;946.6608;;;;
2020/02/22 13:15:53;;;;;;;1.8;1.2;;;;;;;29.55;14.94629;946.5908;;;;
2020/02/22 13:18:27;;;;;;;2.6;1.3;;;;;;;31.2;13.60156;946.5309;;;;
2020/02/22 13:21:09;;;;;;;1.5;1.1;;;;;;;31.97;12.91797;946.4863;;;;
2020/02/22 13:23:37;;;;;;;2.3;1.5;;;;;;;32.02;12.77539;946.3708;;;;
2020/02/22 13:26:13;;;;;;;1.9;1.3;;;;;;;32.81;12.55762;946.2009;;;;
2020/02/22 13:28:36;;;;;;;2;1.4;;;;;;;33.49;12.13184;945.986;;;;
2020/02/22 13:31:19;;;;;;;2.2;1.6;;;;;;;33.03;13.01953;945.9152;;;;
2020/02/22 13:33:47;;;;;;;3.3;1.6;;;;;;;31.58;13.54102;945.7894;;;;
2020/02/22 13:36:15;;;;;;;2.7;1.5;;;;;;;32.39;12.94141;945.7463;;;;
2020/02/22 13:38:45;;;;;;;3.6;1.6;;;;;;;33.01;12.31055;945.5912;;;;
2020/02/22 13:41:37;;;;;;;2.9;1.6;;;;;;;33.35;12.46387;945.4297;;;;
2020/02/22 13:43:56;;;;;;;2.4;1.4;;;;;;;33.57;12.03711;945.4037;;;;
2020/02/22 13:46:30;;;;;;;3.4;1.5;;;;;;;34.33;11.74414;945.3762;;;;
2020/02/22 13:49:18;;;;;;;2.1;1.5;;;;;;;35.13;10.94434;945.3;;;;
2020/02/22 13:51:22;;;;;;;1.9;1.3;;;;;;;35.94;10.46777;945.2712;;;;
2020/02/22 13:53:46;;;;;;;1.9;1.4;;;;;;;36.22;10.40234;945.2352;;;;
2020/02/22 13:56:26;;;;;;;2.3;1.5;;;;;;;35.3;10.7793;945.0595;;;;
2020/02/22 13:58:48;;;;;;;1.5;1.3;;;;;;;34.23;11.23633;944.8867;;;;
2020/02/22 14:01:15;;;;;;;2.3;1.3;;;;;;;31.9;12.68848;944.9644;;;;
2020/02/22 14:03:46;;;;;;;2.2;1.5;;;;;;;31.41;13.16504;944.913;;;;
2020/02/22 14:06:22;;;;;;;2.2;1.6;;;;;;;31.81;12.96094;944.7969;;;;
2020/02/22 14:09:19;;;;;;;3.2;1.9;;;;;;;32.35;12.01758;944.6908;;;;
2020/02/22 14:12:21;;;;;;;3.2;1.8;;;;;;;32.03;12.15234;944.5572;;;;
2020/02/22 14:14:20;;;;;;;3.3;2;;;;;;;32.05;12.0332;944.546;;;;
2020/02/22 14:17:12;;;;;;;4;2.3;;;;;;;30.71;12.75;944.5628;;;;
2020/02/22 14:19:45;;;;;;;7;3.2;;;;;;;32.1;12.59766;944.5272;;;;
2020/02/22 14:22:17;;;;;;;3.6;2.2;;;;;;;31.48;12.7002;944.6685;;;;
2020/02/22 14:24:46;;;;;;;7.8;4.9;;;;;;;31.96;13.00195;944.5133;;;;
2020/02/22 14:27:24;;;;;;;10;6.6;;;;;;;32.57;12.5625;944.5932;;;;
2020/02/22 14:29:49;;;;;;;4.2;2.4;;;;;;;33.21;11.87207;944.5578;;;;
2020/02/22 14:32:28;;;;;;;2.6;1.5;;;;;;;32.91;11.33594;944.4431;;;;
2020/02/22 14:34:57;;;;;;;4;2.2;;;;;;;33.63;11.52148;944.5803;;;;
2020/02/22 14:38:19;;;;;;;3.4;1.4;;;;;;;33.01;12.99512;944.5867;;;;
2020/02/22 14:40:42;;;;;;;3.7;1.7;;;;;;;32.32;13.35938;944.528;;;;
2020/02/22 14:43:22;;;;;;;2.1;1.5;;;;;;;32.29;12.51953;944.5844;;;;
2020/02/22 14:45:48;;;;;;;3.2;1.4;;;;;;;32.26;12.00293;944.5778;;;;
2020/02/22 14:48:25;;;;;;;1.9;1.4;;;;;;;31.24;12.43066;944.6027;;;;
2020/02/22 14:51:20;;;;;;;2.4;1.6;;;;;;;30.03;14.19922;944.5945;;;;
2020/02/22 14:53:46;;;;;;;8;1.7;;;;;;;29.04;16.00195;944.7195;;;;
2020/02/22 14:56:16;;;;;;;3.4;1.8;;;;;;;28.57;16.30566;944.6387;;;;
2020/02/22 14:58:41;;;;;;;3.7;1.6;;;;;;;28.39;16.12109;944.6898;;;;
2020/02/22 15:01:15;;;;;;;3.1;1.5;;;;;;;28.54;16.37598;944.7133;;;;
2020/02/22 15:03:44;;;;;;;4.4;2.7;;;;;;;28.07;17.19043;944.7467;;;;
2020/02/22 15:06:08;;;;;;;7.8;3.4;;;;;;;27.3;17.73047;944.7388;;;;
2020/02/22 15:08:39;;;;;;;4.3;2.2;;;;;;;26.29;18.625;944.7356;;;;
2020/02/22 15:11:05;;;;;;;7.7;4.2;;;;;;;25.21;19.79688;944.686;;;;
2020/02/22 15:13:34;;;;;;;4.5;2.1;;;;;;;24.47;20.4707;944.7047;;;;
2020/02/22 15:16:01;;;;;;;5.8;2;;;;;;;23.83;21.8418;944.8091;;;;
2020/02/22 15:18:34;;;;;;;7.3;2.8;;;;;;;23.2;22.44629;944.9255;;;;
2020/02/22 15:20:54;;;;;;;6.3;2.8;;;;;;;22.89;23.09961;945.0453;;;;
2020/02/22 15:23:28;;;;;;;4.7;2.5;;;;;;;22.45;22.94824;944.9539;;;;
2020/02/22 15:25:52;;;;;;;3.8;2.1;;;;;;;21.79;24.1084;944.9353;;;;
2020/02/22 15:29:35;;;;;;;3.4;2.2;;;;;;;21.41;24.41504;944.9416;;;;
2020/02/22 15:31:49;;;;;;;3.7;2.3;;;;;;;20.81;25.02539;944.909;;;;
2020/02/22 15:34:17;;;;;;;4.8;2.4;;;;;;;20.56;25.71191;944.9394;;;;
2020/02/22 15:36:44;;;;;;;6.7;3;;;;;;;20.19;26.2041;945.0298;;;;